Terminal Aerodrome Forecast
Issued by NWS Charleston, WV

Current Version | Previous Version | Graphics & Text | Print | Product List | Glossary On
Versions: 1 2 3 4 5 6 7 8 9 10 11 12 13 14 15 16 17 18 19 20 21 22 23 24 25 26 27 28
000
FTUS41 KRLX 280500
TAFBKW
TAF
KBKW 280529Z 2806/2906 32007KT 4SM -SN OVC012
     FM280800 32006KT P6SM BKN018
     FM281000 32006KT P6SM BKN020
     FM281400 32005KT P6SM SCT025
     FM281800 33005KT P6SM SKC
     FM282300 00000KT P6SM SKC=

USA.gov is the U.S. government's official web portal to all federal, state and local government web resources and services.